JAL145 RJTT-RJSA
Flight info
| Callsign | JAL145 |
|---|---|
| Flight time | 0h 54m |
| Altitude | 33000 |
| Route | BRUCE AGRIS Y11 YTE Y113 MRE |
| Aircraft | B738/M-SDGIJ1LRWY/SB1 |
Departure
| Time | 2026-04-21 06:44 |
|---|---|
| Airport | Tokyo Haneda International Airport (RJTT) |
Arrival
| Time | 2026-04-21 07:39 |
|---|---|
| Airport | Aomori Airport (RJSA) |
| Time | Latitude | Longitude | Altitude | Speed | Heading |
|---|---|---|---|---|---|
| 2026-04-21 06:28 | 35.54726 | 139.78410 | 28 ft | 0 kts | 60° |
| 2026-04-21 06:29 | 35.54720 | 139.78398 | 28 ft | 2 kts | 60° |
| 2026-04-21 06:30 | 35.54712 | 139.78381 | 28 ft | 2 kts | 60° |
| 2026-04-21 06:30 | 35.54705 | 139.78365 | 28 ft | 2 kts | 60° |
| 2026-04-21 06:30 | 35.54697 | 139.78349 | 28 ft | 2 kts | 60° |
| 2026-04-21 06:30 | 35.54689 | 139.78332 | 28 ft | 2 kts | 60° |
| 2026-04-21 06:31 | 35.54681 | 139.78316 | 28 ft | 2 kts | 60° |
| 2026-04-21 06:31 | 35.54673 | 139.78299 | 28 ft | 2 kts | 60° |
| 2026-04-21 06:31 | 35.54665 | 139.78282 | 28 ft | 2 kts | 65° |
| 2026-04-21 06:31 | 35.54662 | 139.78264 | 28 ft | 2 kts | 91° |
| 2026-04-21 06:32 | 35.54665 | 139.78245 | 28 ft | 2 kts | 114° |
| 2026-04-21 06:32 | 35.54674 | 139.78229 | 28 ft | 2 kts | 136° |
| 2026-04-21 06:32 | 35.54681 | 139.78221 | 28 ft | 1 kts | 150° |
| 2026-04-21 06:32 | 35.54686 | 139.78218 | 28 ft | 0 kts | 150° |
| 2026-04-21 06:36 | 35.54653 | 139.78242 | 28 ft | 11 kts | 150° |
| 2026-04-21 06:36 | 35.54542 | 139.78320 | 28 ft | 20 kts | 150° |
| 2026-04-21 06:37 | 35.54411 | 139.78413 | 28 ft | 20 kts | 150° |
| 2026-04-21 06:37 | 35.54283 | 139.78505 | 28 ft | 17 kts | 150° |
| 2026-04-21 06:37 | 35.54226 | 139.78554 | 28 ft | 7 kts | 125° |
| 2026-04-21 06:37 | 35.54222 | 139.78619 | 28 ft | 7 kts | 69° |
| 2026-04-21 06:38 | 35.54245 | 139.78676 | 28 ft | 6 kts | 60° |
| 2026-04-21 06:38 | 35.54288 | 139.78766 | 28 ft | 16 kts | 60° |
| 2026-04-21 06:38 | 35.54368 | 139.78931 | 28 ft | 22 kts | 59° |
| 2026-04-21 06:38 | 35.54452 | 139.79111 | 28 ft | 22 kts | 60° |
| 2026-04-21 06:39 | 35.54537 | 139.79291 | 28 ft | 21 kts | 60° |
| 2026-04-21 06:39 | 35.54619 | 139.79463 | 28 ft | 20 kts | 60° |
| 2026-04-21 06:39 | 35.54699 | 139.79633 | 28 ft | 19 kts | 59° |
| 2026-04-21 06:39 | 35.54715 | 139.79715 | 28 ft | 8 kts | 112° |
| 2026-04-21 06:40 | 35.54667 | 139.79764 | 28 ft | 8 kts | 150° |
| 2026-04-21 06:40 | 35.54588 | 139.79819 | 28 ft | 15 kts | 150° |
| 2026-04-21 06:40 | 35.54494 | 139.79886 | 28 ft | 14 kts | 150° |
| 2026-04-21 06:40 | 35.54403 | 139.79950 | 28 ft | 14 kts | 150° |
| 2026-04-21 06:41 | 35.54309 | 139.80017 | 28 ft | 13 kts | 150° |
| 2026-04-21 06:41 | 35.54218 | 139.80081 | 28 ft | 13 kts | 149° |
| 2026-04-21 06:41 | 35.54131 | 139.80145 | 28 ft | 13 kts | 149° |
| 2026-04-21 06:41 | 35.54047 | 139.80203 | 28 ft | 12 kts | 149° |
| 2026-04-21 06:42 | 35.53966 | 139.80261 | 28 ft | 12 kts | 150° |
| 2026-04-21 06:42 | 35.53915 | 139.80315 | 28 ft | 8 kts | 111° |
| 2026-04-21 06:42 | 35.53925 | 139.80383 | 28 ft | 7 kts | 64° |
| 2026-04-21 06:42 | 35.53950 | 139.80440 | 28 ft | 6 kts | 57° |
| 2026-04-21 06:43 | 35.53989 | 139.80475 | 28 ft | 6 kts | 13° |
| 2026-04-21 06:43 | 35.54033 | 139.80469 | 28 ft | 5 kts | 332° |
| 2026-04-21 06:43 | 35.54083 | 139.80435 | 28 ft | 14 kts | 330° |
| 2026-04-21 06:43 | 35.54349 | 139.80246 | 28 ft | 77 kts | 329° |
| 2026-04-21 06:44 | 35.55025 | 139.79767 | 28 ft | 138 kts | 329° |
| 2026-04-21 06:44 | 35.56002 | 139.79066 | 240 ft | 167 kts | 329° |
| 2026-04-21 06:44 | 35.57031 | 139.78299 | 952 ft | 167 kts | 335° |
| 2026-04-21 06:44 | 35.58300 | 139.78116 | 1480 ft | 178 kts | 18° |
| 2026-04-21 06:45 | 35.59426 | 139.79021 | 2054 ft | 189 kts | 40° |
| 2026-04-21 06:45 | 35.60479 | 139.80199 | 2530 ft | 205 kts | 38° |
| 2026-04-21 06:45 | 35.61724 | 139.81468 | 3018 ft | 224 kts | 36° |
| 2026-04-21 06:45 | 35.63020 | 139.82764 | 3545 ft | 240 kts | 36° |
| 2026-04-21 06:46 | 35.64455 | 139.84122 | 4069 ft | 254 kts | 27° |
| 2026-04-21 06:46 | 35.66169 | 139.84729 | 4614 ft | 259 kts | 359° |
| 2026-04-21 06:46 | 35.68041 | 139.84611 | 5313 ft | 264 kts | 352° |
| 2026-04-21 06:46 | 35.69944 | 139.84433 | 6067 ft | 269 kts | 353° |
| 2026-04-21 06:47 | 35.71885 | 139.84380 | 6822 ft | 275 kts | 356° |
| 2026-04-21 06:47 | 35.73833 | 139.84421 | 7641 ft | 278 kts | 358° |
| 2026-04-21 06:47 | 35.75824 | 139.84627 | 8557 ft | 280 kts | 1° |
| 2026-04-21 06:47 | 35.77778 | 139.84932 | 9418 ft | 282 kts | 1° |
| 2026-04-21 06:48 | 35.79767 | 139.85254 | 10236 ft | 286 kts | 1° |
| 2026-04-21 06:48 | 35.81879 | 139.85576 | 10905 ft | 297 kts | 360° |
| 2026-04-21 06:48 | 35.84131 | 139.85899 | 11548 ft | 309 kts | 360° |
| 2026-04-21 06:48 | 35.86449 | 139.86224 | 12144 ft | 323 kts | 359° |
| 2026-04-21 06:49 | 35.88909 | 139.86571 | 12779 ft | 337 kts | 359° |
| 2026-04-21 06:49 | 35.91456 | 139.86929 | 13383 ft | 350 kts | 359° |
| 2026-04-21 06:49 | 35.94142 | 139.87318 | 14224 ft | 357 kts | 358° |
| 2026-04-21 06:49 | 35.96896 | 139.87714 | 14950 ft | 367 kts | 358° |
| 2026-04-21 06:50 | 35.99558 | 139.88097 | 15716 ft | 374 kts | 358° |
| 2026-04-21 06:50 | 36.02439 | 139.88513 | 16563 ft | 379 kts | 356° |
| 2026-04-21 06:50 | 36.05382 | 139.88936 | 17295 ft | 386 kts | 356° |
| 2026-04-21 06:50 | 36.08266 | 139.89348 | 18012 ft | 392 kts | 355° |
| 2026-04-21 06:51 | 36.11173 | 139.89761 | 18691 ft | 399 kts | 355° |
| 2026-04-21 06:51 | 36.14117 | 139.90179 | 19287 ft | 407 kts | 355° |
| 2026-04-21 06:51 | 36.17101 | 139.90613 | 20269 ft | 404 kts | 354° |
| 2026-04-21 06:51 | 36.20064 | 139.91037 | 20656 ft | 417 kts | 354° |
| 2026-04-21 06:52 | 36.23124 | 139.91476 | 21556 ft | 414 kts | 354° |
| 2026-04-21 06:52 | 36.26311 | 139.91934 | 22086 ft | 422 kts | 353° |
| 2026-04-21 06:52 | 36.29446 | 139.92384 | 22725 ft | 425 kts | 353° |
| 2026-04-21 06:52 | 36.32536 | 139.92824 | 23095 ft | 435 kts | 354° |
| 2026-04-21 06:53 | 36.35666 | 139.93280 | 23987 ft | 432 kts | 354° |
| 2026-04-21 06:53 | 36.38666 | 139.93712 | 24271 ft | 442 kts | 353° |
| 2026-04-21 06:53 | 36.41887 | 139.94174 | 24965 ft | 443 kts | 353° |
| 2026-04-21 06:53 | 36.44996 | 139.94548 | 25711 ft | 437 kts | 350° |
| 2026-04-21 06:54 | 36.48369 | 139.94771 | 26162 ft | 440 kts | 348° |
| 2026-04-21 06:54 | 36.51746 | 139.94885 | 26632 ft | 445 kts | 348° |
| 2026-04-21 06:54 | 36.55196 | 139.94971 | 27107 ft | 451 kts | 347° |
| 2026-04-21 06:54 | 36.58690 | 139.95055 | 27609 ft | 455 kts | 347° |
| 2026-04-21 06:55 | 36.62203 | 139.95169 | 28344 ft | 455 kts | 347° |
| 2026-04-21 06:55 | 36.65718 | 139.95287 | 28833 ft | 458 kts | 347° |
| 2026-04-21 06:55 | 36.69206 | 139.95413 | 29274 ft | 462 kts | 347° |
| 2026-04-21 06:55 | 36.72837 | 139.95558 | 29850 ft | 464 kts | 347° |
| 2026-04-21 06:56 | 36.76407 | 139.95705 | 30437 ft | 465 kts | 347° |
| 2026-04-21 06:56 | 36.79941 | 139.95865 | 31321 ft | 458 kts | 348° |
| 2026-04-21 06:56 | 36.83315 | 139.96030 | 32286 ft | 448 kts | 347° |
| 2026-04-21 06:56 | 36.86710 | 139.96269 | 32899 ft | 448 kts | 350° |
| 2026-04-21 06:57 | 36.90078 | 139.96768 | 32958 ft | 456 kts | 353° |
| 2026-04-21 06:57 | 36.96826 | 139.98347 | 32959 ft | 461 kts | 357° |
| 2026-04-21 06:58 | 37.03701 | 140.00191 | 32960 ft | 458 kts | 357° |
| 2026-04-21 06:58 | 37.10440 | 140.02006 | 32951 ft | 463 kts | 357° |
| 2026-04-21 06:59 | 37.16974 | 140.03720 | 32931 ft | 463 kts | 356° |
| 2026-04-21 06:59 | 37.23437 | 140.05431 | 32917 ft | 458 kts | 356° |
| 2026-04-21 07:00 | 37.29988 | 140.07144 | 32917 ft | 461 kts | 356° |
| 2026-04-21 07:00 | 37.36741 | 140.08885 | 32916 ft | 464 kts | 356° |
| 2026-04-21 07:01 | 37.43844 | 140.10719 | 32915 ft | 465 kts | 356° |
| 2026-04-21 07:01 | 37.54120 | 140.13431 | 32932 ft | 455 kts | 355° |
| 2026-04-21 07:02 | 37.60930 | 140.15195 | 32924 ft | 463 kts | 355° |
| 2026-04-21 07:02 | 37.67935 | 140.17017 | 32902 ft | 460 kts | 355° |
| 2026-04-21 07:03 | 37.74724 | 140.18828 | 32887 ft | 450 kts | 354° |
| 2026-04-21 07:03 | 37.78009 | 140.19696 | 32243 ft | 452 kts | 355° |
| 2026-04-21 07:03 | 37.81224 | 140.20538 | 31357 ft | 457 kts | 354° |
| 2026-04-21 07:04 | 37.84542 | 140.21390 | 30245 ft | 465 kts | 354° |
| 2026-04-21 07:04 | 37.87915 | 140.22244 | 28961 ft | 477 kts | 354° |
| 2026-04-21 07:04 | 37.91535 | 140.23164 | 27740 ft | 486 kts | 355° |
| 2026-04-21 07:04 | 37.95100 | 140.24095 | 27023 ft | 482 kts | 356° |
| 2026-04-21 07:05 | 37.98681 | 140.25067 | 26916 ft | 469 kts | 356° |
| 2026-04-21 07:05 | 38.02190 | 140.26030 | 26934 ft | 465 kts | 355° |
| 2026-04-21 07:05 | 38.05605 | 140.26970 | 26932 ft | 448 kts | 355° |
| 2026-04-21 07:05 | 38.08874 | 140.27873 | 26968 ft | 441 kts | 354° |
| 2026-04-21 07:06 | 38.12009 | 140.28702 | 27433 ft | 444 kts | 354° |
| 2026-04-21 07:06 | 38.15212 | 140.29530 | 27862 ft | 449 kts | 354° |
| 2026-04-21 07:06 | 38.18553 | 140.30399 | 28527 ft | 448 kts | 354° |
| 2026-04-21 07:06 | 38.21931 | 140.31276 | 28879 ft | 455 kts | 354° |
| 2026-04-21 07:07 | 38.25381 | 140.32172 | 29219 ft | 462 kts | 354° |
| 2026-04-21 07:07 | 38.28945 | 140.33098 | 29745 ft | 465 kts | 354° |
| 2026-04-21 07:07 | 38.32403 | 140.34016 | 30224 ft | 468 kts | 355° |
| 2026-04-21 07:07 | 38.35784 | 140.34920 | 30727 ft | 469 kts | 354° |
| 2026-04-21 07:08 | 38.39204 | 140.35814 | 31195 ft | 468 kts | 353° |
| 2026-04-21 07:08 | 38.42565 | 140.36517 | 31609 ft | 464 kts | 351° |
| 2026-04-21 07:08 | 38.45908 | 140.37064 | 32422 ft | 452 kts | 350° |
| 2026-04-21 07:08 | 38.49276 | 140.37546 | 32843 ft | 447 kts | 349° |
| 2026-04-21 07:09 | 38.56002 | 140.38409 | 32911 ft | 451 kts | 349° |
| 2026-04-21 07:09 | 38.62550 | 140.39278 | 32903 ft | 456 kts | 350° |
| 2026-04-21 07:10 | 38.69038 | 140.40199 | 32908 ft | 444 kts | 350° |
| 2026-04-21 07:10 | 38.75770 | 140.41156 | 32902 ft | 456 kts | 350° |
| 2026-04-21 07:11 | 38.82602 | 140.42149 | 32909 ft | 451 kts | 351° |
| 2026-04-21 07:11 | 38.89387 | 140.43152 | 32898 ft | 452 kts | 351° |
| 2026-04-21 07:12 | 38.96283 | 140.44156 | 32898 ft | 460 kts | 351° |
| 2026-04-21 07:12 | 39.03255 | 140.45177 | 32873 ft | 457 kts | 351° |
| 2026-04-21 07:13 | 39.06696 | 140.45705 | 32716 ft | 448 kts | 351° |
| 2026-04-21 07:13 | 39.09979 | 140.46213 | 32314 ft | 441 kts | 351° |
| 2026-04-21 07:13 | 39.13045 | 140.46680 | 31783 ft | 439 kts | 350° |
| 2026-04-21 07:13 | 39.16180 | 140.47144 | 31089 ft | 441 kts | 349° |
| 2026-04-21 07:14 | 39.19341 | 140.47601 | 30370 ft | 443 kts | 349° |
| 2026-04-21 07:14 | 39.22603 | 140.48076 | 29747 ft | 441 kts | 349° |
| 2026-04-21 07:14 | 39.25888 | 140.48558 | 29088 ft | 440 kts | 349° |
| 2026-04-21 07:14 | 39.29214 | 140.49048 | 28430 ft | 439 kts | 350° |
| 2026-04-21 07:15 | 39.32427 | 140.49522 | 27781 ft | 437 kts | 351° |
| 2026-04-21 07:15 | 39.35725 | 140.50012 | 27100 ft | 436 kts | 351° |
| 2026-04-21 07:15 | 39.38966 | 140.50496 | 26416 ft | 434 kts | 352° |
| 2026-04-21 07:15 | 39.42256 | 140.50987 | 25756 ft | 432 kts | 352° |
| 2026-04-21 07:16 | 39.45558 | 140.51483 | 25086 ft | 429 kts | 353° |
| 2026-04-21 07:16 | 39.48710 | 140.51955 | 24425 ft | 427 kts | 353° |
| 2026-04-21 07:16 | 39.51849 | 140.52423 | 23763 ft | 425 kts | 354° |
| 2026-04-21 07:16 | 39.55065 | 140.52904 | 23058 ft | 422 kts | 354° |
| 2026-04-21 07:17 | 39.58240 | 140.53380 | 22395 ft | 418 kts | 355° |
| 2026-04-21 07:17 | 39.61461 | 140.53865 | 21649 ft | 414 kts | 355° |
| 2026-04-21 07:17 | 39.64602 | 140.54340 | 21001 ft | 409 kts | 355° |
| 2026-04-21 07:17 | 39.67686 | 140.54805 | 20345 ft | 405 kts | 355° |
| 2026-04-21 07:18 | 39.70761 | 140.55270 | 19857 ft | 394 kts | 355° |
| 2026-04-21 07:18 | 39.73729 | 140.55725 | 19824 ft | 374 kts | 355° |
| 2026-04-21 07:18 | 39.76545 | 140.56149 | 19820 ft | 362 kts | 355° |
| 2026-04-21 07:18 | 39.79303 | 140.56551 | 19819 ft | 358 kts | 354° |
| 2026-04-21 07:19 | 39.82018 | 140.56931 | 19813 ft | 357 kts | 354° |
| 2026-04-21 07:19 | 39.84737 | 140.57315 | 19821 ft | 355 kts | 355° |
| 2026-04-21 07:19 | 39.87406 | 140.57695 | 19808 ft | 353 kts | 354° |
| 2026-04-21 07:19 | 39.90085 | 140.58073 | 19806 ft | 356 kts | 354° |
| 2026-04-21 07:20 | 39.92754 | 140.58458 | 19806 ft | 353 kts | 355° |
| 2026-04-21 07:20 | 39.95459 | 140.58853 | 19805 ft | 358 kts | 355° |
| 2026-04-21 07:20 | 39.98166 | 140.59244 | 19809 ft | 359 kts | 355° |
| 2026-04-21 07:20 | 40.00838 | 140.59636 | 19803 ft | 357 kts | 355° |
| 2026-04-21 07:21 | 40.03519 | 140.60034 | 19807 ft | 356 kts | 355° |
| 2026-04-21 07:21 | 40.06220 | 140.60428 | 19811 ft | 356 kts | 355° |
| 2026-04-21 07:21 | 40.08935 | 140.60834 | 19821 ft | 354 kts | 355° |
| 2026-04-21 07:21 | 40.11509 | 140.61214 | 19827 ft | 357 kts | 355° |
| 2026-04-21 07:22 | 40.14082 | 140.61595 | 19836 ft | 354 kts | 356° |
| 2026-04-21 07:22 | 40.16766 | 140.61992 | 19819 ft | 353 kts | 355° |
| 2026-04-21 07:22 | 40.19464 | 140.62384 | 19832 ft | 360 kts | 355° |
| 2026-04-21 07:22 | 40.22273 | 140.62795 | 19835 ft | 360 kts | 356° |
| 2026-04-21 07:23 | 40.25009 | 140.63207 | 19834 ft | 355 kts | 356° |
| 2026-04-21 07:23 | 40.27733 | 140.63619 | 19813 ft | 352 kts | 355° |
| 2026-04-21 07:23 | 40.30391 | 140.64017 | 19344 ft | 350 kts | 356° |
| 2026-04-21 07:23 | 40.33042 | 140.64414 | 18754 ft | 349 kts | 355° |
| 2026-04-21 07:24 | 40.33900 | 140.64542 | 18568 ft | 348 kts | 356° |
| 2026-04-21 07:24 | 40.43103 | 140.65922 | 16545 ft | 337 kts | 356° |
| 2026-04-21 07:25 | 40.45555 | 140.66290 | 16007 ft | 335 kts | 357° |
| 2026-04-21 07:25 | 40.48096 | 140.66672 | 15435 ft | 332 kts | 356° |
| 2026-04-21 07:25 | 40.50593 | 140.67046 | 14889 ft | 329 kts | 356° |
| 2026-04-21 07:25 | 40.53043 | 140.67412 | 14332 ft | 327 kts | 356° |
| 2026-04-21 07:26 | 40.55529 | 140.67784 | 13780 ft | 323 kts | 356° |
| 2026-04-21 07:26 | 40.57997 | 140.68153 | 13327 ft | 317 kts | 356° |
| 2026-04-21 07:26 | 40.60414 | 140.68518 | 12904 ft | 311 kts | 356° |
| 2026-04-21 07:26 | 40.62820 | 140.68869 | 12385 ft | 324 kts | 356° |
| 2026-04-21 07:27 | 40.65321 | 140.69222 | 11821 ft | 330 kts | 356° |
| 2026-04-21 07:27 | 40.67814 | 140.69595 | 11254 ft | 328 kts | 357° |
| 2026-04-21 07:27 | 40.70286 | 140.69977 | 10716 ft | 325 kts | 356° |
| 2026-04-21 07:27 | 40.72685 | 140.70348 | 10428 ft | 316 kts | 357° |
| 2026-04-21 07:28 | 40.75098 | 140.70712 | 10270 ft | 302 kts | 356° |
| 2026-04-21 07:28 | 40.77411 | 140.71011 | 10121 ft | 291 kts | 355° |
| 2026-04-21 07:28 | 40.79656 | 140.71269 | 9739 ft | 286 kts | 354° |
| 2026-04-21 07:28 | 40.81741 | 140.71506 | 9363 ft | 275 kts | 354° |
| 2026-04-21 07:29 | 40.83852 | 140.71747 | 8989 ft | 276 kts | 354° |
| 2026-04-21 07:29 | 40.85972 | 140.71991 | 8620 ft | 274 kts | 354° |
| 2026-04-21 07:29 | 40.88081 | 140.72243 | 8258 ft | 271 kts | 354° |
| 2026-04-21 07:29 | 40.90166 | 140.72496 | 7877 ft | 269 kts | 354° |
| 2026-04-21 07:30 | 40.92233 | 140.72795 | 7619 ft | 271 kts | 359° |
| 2026-04-21 07:30 | 40.94262 | 140.73720 | 7177 ft | 297 kts | 25° |
| 2026-04-21 07:30 | 40.95810 | 140.76018 | 6710 ft | 316 kts | 62° |
| 2026-04-21 07:30 | 40.96260 | 140.79169 | 6313 ft | 316 kts | 97° |
| 2026-04-21 07:31 | 40.95620 | 140.82263 | 5603 ft | 319 kts | 119° |
| 2026-04-21 07:31 | 40.94467 | 140.85136 | 5125 ft | 313 kts | 127° |
| 2026-04-21 07:31 | 40.93224 | 140.87707 | 5032 ft | 288 kts | 130° |
| 2026-04-21 07:31 | 40.91985 | 140.90041 | 4815 ft | 268 kts | 138° |
| 2026-04-21 07:32 | 40.90535 | 140.91870 | 4484 ft | 247 kts | 156° |
| 2026-04-21 07:32 | 40.88945 | 140.92792 | 4292 ft | 211 kts | 185° |
| 2026-04-21 07:32 | 40.87423 | 140.92717 | 4049 ft | 183 kts | 204° |
| 2026-04-21 07:32 | 40.86123 | 140.92215 | 3851 ft | 162 kts | 213° |
| 2026-04-21 07:33 | 40.85132 | 140.91376 | 3671 ft | 142 kts | 231° |
| 2026-04-21 07:33 | 40.84436 | 140.90340 | 3523 ft | 126 kts | 240° |
| 2026-04-21 07:33 | 40.83961 | 140.89210 | 3477 ft | 126 kts | 261° |
| 2026-04-21 07:33 | 40.83952 | 140.87885 | 3525 ft | 130 kts | 263° |
| 2026-04-21 07:34 | 40.83638 | 140.86702 | 3475 ft | 114 kts | 244° |
| 2026-04-21 07:34 | 40.83217 | 140.85701 | 3504 ft | 112 kts | 245° |
| 2026-04-21 07:34 | 40.82730 | 140.84727 | 3469 ft | 112 kts | 241° |
| 2026-04-21 07:34 | 40.82228 | 140.83829 | 3309 ft | 108 kts | 240° |
| 2026-04-21 07:35 | 40.81718 | 140.82933 | 3151 ft | 110 kts | 238° |
| 2026-04-21 07:35 | 40.81180 | 140.82045 | 2953 ft | 108 kts | 241° |
| 2026-04-21 07:35 | 40.80690 | 140.81175 | 2811 ft | 108 kts | 237° |
| 2026-04-21 07:35 | 40.80154 | 140.80313 | 2624 ft | 108 kts | 237° |
| 2026-04-21 07:36 | 40.79652 | 140.79457 | 2448 ft | 104 kts | 237° |
| 2026-04-21 07:36 | 40.79134 | 140.78593 | 2298 ft | 110 kts | 238° |
| 2026-04-21 07:36 | 40.78622 | 140.77719 | 2106 ft | 111 kts | 237° |
| 2026-04-21 07:36 | 40.78113 | 140.76881 | 1975 ft | 103 kts | 238° |
| 2026-04-21 07:37 | 40.77628 | 140.76086 | 1809 ft | 99 kts | 237° |
| 2026-04-21 07:37 | 40.77152 | 140.75255 | 1659 ft | 103 kts | 237° |
| 2026-04-21 07:37 | 40.76642 | 140.74416 | 1509 ft | 106 kts | 237° |
| 2026-04-21 07:37 | 40.76129 | 140.73555 | 1342 ft | 106 kts | 236° |
| 2026-04-21 07:38 | 40.75584 | 140.72652 | 1181 ft | 119 kts | 238° |
| 2026-04-21 07:38 | 40.75012 | 140.71646 | 974 ft | 125 kts | 228° |
| 2026-04-21 07:38 | 40.74417 | 140.70770 | 872 ft | 111 kts | 236° |
| 2026-04-21 07:38 | 40.73860 | 140.69766 | 683 ft | 120 kts | 232° |
| 2026-04-21 07:39 | 40.73382 | 140.68955 | 674 ft | 67 kts | 232° |
| 2026-04-21 07:39 | 40.73203 | 140.68655 | 674 ft | 10 kts | 233° |
| 2026-04-21 07:39 | 40.73183 | 140.68622 | 674 ft | 9 kts | 233° |
| 2026-04-21 07:39 | 40.73137 | 140.68507 | 674 ft | 12 kts | 275° |
| 2026-04-21 07:40 | 40.73192 | 140.68433 | 674 ft | 8 kts | 322° |
| 2026-04-21 07:40 | 40.73248 | 140.68405 | 674 ft | 9 kts | 15° |
| 2026-04-21 07:40 | 40.73311 | 140.68478 | 674 ft | 12 kts | 52° |
| 2026-04-21 07:40 | 40.73369 | 140.68576 | 674 ft | 13 kts | 52° |
| 2026-04-21 07:41 | 40.73443 | 140.68701 | 674 ft | 16 kts | 52° |
| 2026-04-21 07:41 | 40.73524 | 140.68835 | 674 ft | 17 kts | 52° |
| 2026-04-21 07:41 | 40.73608 | 140.68974 | 674 ft | 11 kts | 51° |
| 2026-04-21 07:41 | 40.73655 | 140.69052 | 674 ft | 5 kts | 52° |
| 2026-04-21 07:42 | 40.73703 | 140.69051 | 674 ft | 7 kts | 320° |
| 2026-04-21 07:42 | 40.73735 | 140.69016 | 674 ft | 4 kts | 322° |
| 2026-04-21 07:42 | 40.73755 | 140.68996 | 674 ft | 2 kts | 322° |
| 2026-04-21 07:42 | 40.73766 | 140.68985 | 674 ft | 2 kts | 321° |
| 2026-04-21 07:43 | 40.73781 | 140.68971 | 674 ft | 1 kts | 321° |
| 2026-04-21 07:43 | 40.73782 | 140.68970 | 674 ft | 0 kts | 321° |